createdAt,value
2023-02-26T00:01:04.331Z,0.10
2023-02-26T00:03:32.233Z,0.00
2023-02-26T00:06:01.474Z,0.00
2023-02-26T00:08:31.301Z,0.00
2023-02-26T00:11:01.844Z,0.00
2023-02-26T00:13:30.960Z,0.00
2023-02-26T00:16:01.833Z,0.00
2023-02-26T00:18:31.581Z,-0.10
2023-02-26T00:20:59.855Z,-0.10
2023-02-26T00:23:28.121Z,-0.10
2023-02-26T00:25:56.120Z,-0.20
2023-02-26T00:28:24.456Z,-0.10
2023-02-26T00:30:52.867Z,-0.10
2023-02-26T00:33:21.296Z,-0.20
2023-02-26T00:35:57.107Z,-0.20
2023-02-26T00:38:25.364Z,-0.30
2023-02-26T00:40:55.572Z,-0.30
2023-02-26T00:43:26.604Z,-0.40
2023-02-26T00:46:03.080Z,-0.40
2023-02-26T00:48:41.497Z,-0.50
2023-02-26T00:51:17.473Z,-0.50
2023-02-26T00:53:50.920Z,-0.50
2023-02-26T00:56:19.103Z,-0.60
2023-02-26T00:58:46.900Z,-0.60
2023-02-26T01:01:14.738Z,-0.60
2023-02-26T01:03:43.020Z,-0.70
2023-02-26T01:06:16.388Z,-0.70
2023-02-26T01:08:52.198Z,-0.80
2023-02-26T01:11:20.432Z,-0.80
2023-02-26T01:13:48.692Z,-0.80
2023-02-26T01:16:21.677Z,-0.80
2023-02-26T01:18:54.424Z,-0.70
2023-02-26T01:21:30.205Z,-0.70
2023-02-26T01:23:58.238Z,-0.70
2023-02-26T01:26:29.164Z,-0.70
2023-02-26T01:28:57.476Z,-0.80
2023-02-26T01:31:36.366Z,-0.80
2023-02-26T01:34:11.098Z,-0.80
2023-02-26T01:36:44.765Z,-0.80
2023-02-26T01:39:23.335Z,-0.80
2023-02-26T01:41:53.249Z,-0.90
2023-02-26T01:44:27.355Z,-0.90
2023-02-26T01:47:18.512Z,-1.00
2023-02-26T01:49:47.152Z,-1.00
2023-02-26T01:52:48.327Z,-1.10
2023-02-26T01:55:20.431Z,-1.10
2023-02-26T01:57:48.718Z,-1.20
2023-02-26T02:00:17.451Z,-1.20
2023-02-26T02:02:45.792Z,-1.30
2023-02-26T02:05:20.561Z,-1.40
2023-02-26T02:07:48.596Z,-1.40
2023-02-26T02:10:18.742Z,-1.50
2023-02-26T02:12:52.164Z,-1.50
2023-02-26T02:15:26.452Z,-1.40
2023-02-26T02:18:03.821Z,-1.40
2023-02-26T02:20:53.170Z,-1.30
2023-02-26T02:23:25.632Z,-1.30
2023-02-26T02:26:29.733Z,-1.40
2023-02-26T02:29:14.258Z,-1.50
2023-02-26T02:31:48.155Z,-1.60
2023-02-26T02:34:21.478Z,-1.70
2023-02-26T02:36:55.889Z,-1.70
2023-02-26T02:39:27.512Z,-1.70
2023-02-26T02:41:59.821Z,-1.60
2023-02-26T02:44:29.765Z,-1.60
2023-02-26T02:47:00.305Z,-1.60
2023-02-26T02:49:33.358Z,-1.60
2023-02-26T02:52:07.822Z,-1.60
2023-02-26T02:54:41.815Z,-1.60
2023-02-26T02:57:16.550Z,-1.60
2023-02-26T02:59:47.192Z,-1.60
2023-02-26T03:02:20.743Z,-1.60
2023-02-26T03:04:49.627Z,-1.60
2023-02-26T03:07:17.628Z,-1.60
2023-02-26T03:09:45.748Z,-1.50
2023-02-26T03:12:14.104Z,-1.50
2023-02-26T03:14:43.529Z,-1.50
2023-02-26T03:17:28.298Z,-1.50
2023-02-26T03:20:09.990Z,-1.40
2023-02-26T03:22:44.366Z,-1.40
2023-02-26T03:25:24.886Z,-1.30
2023-02-26T03:27:58.747Z,-1.30
2023-02-26T03:30:31.301Z,-1.30
2023-02-26T03:33:09.697Z,-1.30
2023-02-26T03:35:46.108Z,-1.20
2023-02-26T03:38:18.736Z,-1.30
2023-02-26T03:40:51.742Z,-1.20
2023-02-26T03:43:21.826Z,-1.30
2023-02-26T03:45:53.246Z,-1.30
2023-02-26T03:48:28.485Z,-1.30
2023-02-26T03:51:00.859Z,-1.20
2023-02-26T03:53:34.014Z,-1.30
2023-02-26T03:56:07.284Z,-1.30
2023-02-26T03:58:35.654Z,-1.20
2023-02-26T04:01:08.862Z,-1.20
2023-02-26T04:03:46.047Z,-1.20
2023-02-26T04:06:14.689Z,-1.20
2023-02-26T04:08:43.420Z,-1.30
2023-02-26T04:11:14.148Z,-1.20
2023-02-26T04:13:41.961Z,-1.30
2023-02-26T04:16:09.850Z,-1.30
2023-02-26T04:18:39.237Z,-1.30
2023-02-26T04:21:07.717Z,-1.30
2023-02-26T04:23:35.515Z,-1.30
2023-02-26T04:26:03.329Z,-1.30
2023-02-26T04:28:31.198Z,-1.30
2023-02-26T04:30:59.080Z,-1.30
2023-02-26T04:33:27.273Z,-1.30
2023-02-26T04:35:56.438Z,-1.30
2023-02-26T04:38:24.281Z,-1.40
2023-02-26T04:40:52.367Z,-1.30
2023-02-26T04:43:20.381Z,-1.30
2023-02-26T04:45:48.709Z,-1.30
2023-02-26T04:48:17.526Z,-1.30
2023-02-26T04:50:46.461Z,-1.20
2023-02-26T04:53:15.726Z,-1.20
2023-02-26T04:55:43.704Z,-1.10
2023-02-26T04:58:12.721Z,-1.10
2023-02-26T05:00:40.670Z,-1.10
2023-02-26T05:03:09.928Z,-1.00
2023-02-26T05:05:37.824Z,-1.00
2023-02-26T05:08:05.896Z,-1.00
2023-02-26T05:10:35.120Z,-0.90
2023-02-26T05:13:03.140Z,-0.90
2023-02-26T05:15:30.993Z,-0.90
2023-02-26T05:17:58.990Z,-0.90
2023-02-26T05:20:26.854Z,-0.90
2023-02-26T05:22:54.815Z,-0.90
2023-02-26T05:25:22.659Z,-0.80
2023-02-26T05:27:51.901Z,-0.80
2023-02-26T05:30:20.006Z,-0.80
2023-02-26T05:32:47.949Z,-0.80
2023-02-26T05:35:16.214Z,-0.80
2023-02-26T05:37:44.145Z,-0.80
2023-02-26T05:40:13.142Z,-0.80
2023-02-26T05:42:41.380Z,-0.80
2023-02-26T05:45:11.114Z,-0.80
2023-02-26T05:47:39.108Z,-0.80
2023-02-26T05:50:07.988Z,-0.80
2023-02-26T05:52:36.206Z,-0.90
2023-02-26T05:55:04.775Z,-0.90
2023-02-26T05:57:32.639Z,-1.00
2023-02-26T06:00:00.516Z,-1.00
2023-02-26T06:02:30.297Z,-1.00
2023-02-26T06:04:58.135Z,-1.00
2023-02-26T06:07:26.120Z,-1.00
2023-02-26T06:09:54.005Z,-1.10
2023-02-26T06:12:21.904Z,-1.10
2023-02-26T06:14:49.731Z,-1.10
2023-02-26T06:17:17.717Z,-1.10
2023-02-26T06:19:46.960Z,-1.10
2023-02-26T06:22:14.842Z,-1.10
2023-02-26T06:24:42.700Z,-1.20
2023-02-26T06:27:10.594Z,-1.20
2023-02-26T06:29:39.234Z,-1.20
2023-02-26T06:32:07.806Z,-1.20
2023-02-26T06:34:35.853Z,-1.20
2023-02-26T06:37:05.135Z,-1.20
2023-02-26T06:39:33.211Z,-1.20
2023-02-26T06:42:01.090Z,-1.20
2023-02-26T06:44:29.068Z,-1.10
2023-02-26T06:46:56.919Z,-1.00
2023-02-26T06:49:24.767Z,-1.00
2023-02-26T06:51:52.698Z,-0.90
2023-02-26T06:54:21.945Z,-0.80
2023-02-26T06:56:49.798Z,-0.70
2023-02-26T06:59:17.677Z,-0.50
2023-02-26T07:01:45.572Z,-0.60
2023-02-26T07:04:13.468Z,-0.60
2023-02-26T07:06:41.619Z,-0.70
2023-02-26T07:09:09.718Z,-0.70
2023-02-26T07:11:39.018Z,-0.70
2023-02-26T07:14:07.038Z,-0.70
2023-02-26T07:16:35.037Z,-0.70
2023-02-26T07:19:02.965Z,-0.40
2023-02-26T07:21:30.813Z,-0.20
2023-02-26T07:23:58.732Z,-0.20
2023-02-26T07:26:26.885Z,-0.20
2023-02-26T07:28:56.350Z,-0.20
2023-02-26T07:31:24.415Z,-0.20
2023-02-26T07:33:52.458Z,-0.20
2023-02-26T07:36:20.551Z,-0.10
2023-02-26T07:38:48.446Z,-0.10
2023-02-26T07:41:16.793Z,-0.10
2023-02-26T07:43:44.664Z,-0.10
2023-02-26T07:46:14.014Z,-0.10
2023-02-26T07:48:41.960Z,0.00
2023-02-26T07:51:11.091Z,0.40
2023-02-26T07:53:39.015Z,0.70
2023-02-26T07:56:06.909Z,0.90
2023-02-26T07:58:35.200Z,0.70
2023-02-26T08:01:03.384Z,0.50
2023-02-26T08:03:33.214Z,0.40
2023-02-26T08:06:01.318Z,0.50
2023-02-26T08:08:29.526Z,0.40
2023-02-26T08:10:57.474Z,0.40
2023-02-26T08:13:25.395Z,0.40
2023-02-26T08:15:53.311Z,0.50
2023-02-26T08:18:21.588Z,0.50
2023-02-26T08:20:52.620Z,0.70
2023-02-26T08:23:20.588Z,0.50
2023-02-26T08:25:48.983Z,0.60
2023-02-26T08:28:16.906Z,0.60
2023-02-26T08:30:44.825Z,0.70
2023-02-26T08:33:12.825Z,0.70
2023-02-26T08:35:40.736Z,0.70
2023-02-26T08:38:10.000Z,0.70
2023-02-26T08:40:38.082Z,0.70
2023-02-26T08:43:05.968Z,0.70
2023-02-26T08:45:33.935Z,0.60
2023-02-26T08:48:01.848Z,0.60
2023-02-26T08:50:29.779Z,0.60
2023-02-26T08:52:57.974Z,0.70
2023-02-26T08:55:27.256Z,0.70
2023-02-26T08:57:55.147Z,0.70
2023-02-26T09:00:23.661Z,0.70
2023-02-26T09:02:51.726Z,0.90
2023-02-26T09:05:20.485Z,1.00
2023-02-26T09:07:48.329Z,1.10
2023-02-26T09:10:16.641Z,1.50
2023-02-26T09:12:46.722Z,1.80
2023-02-26T09:15:15.408Z,1.90
2023-02-26T09:17:43.894Z,2.00
2023-02-26T09:20:13.935Z,2.00
2023-02-26T09:22:42.192Z,2.20
2023-02-26T09:25:10.903Z,2.20
2023-02-26T09:27:38.783Z,2.10
2023-02-26T09:30:09.394Z,2.10
2023-02-26T09:32:38.006Z,2.10
2023-02-26T09:35:06.490Z,2.30
2023-02-26T09:37:34.707Z,2.40
2023-02-26T09:40:03.304Z,2.20
2023-02-26T09:42:50.912Z,2.00
2023-02-26T09:45:28.383Z,2.10
2023-02-26T09:47:56.923Z,1.80
2023-02-26T09:50:29.126Z,1.70
2023-02-26T09:53:03.866Z,1.60
2023-02-26T09:55:35.573Z,1.50
2023-02-26T09:58:05.914Z,1.50
2023-02-26T10:00:39.549Z,1.50
2023-02-26T10:03:22.779Z,1.50
2023-02-26T10:06:15.555Z,1.50
2023-02-26T10:08:52.191Z,1.50
2023-02-26T10:11:27.409Z,1.60
2023-02-26T10:14:03.526Z,1.80
2023-02-26T10:16:38.428Z,1.70
2023-02-26T10:19:12.464Z,2.00
2023-02-26T10:21:44.126Z,2.10
2023-02-26T10:24:19.282Z,2.10
2023-02-26T10:26:52.326Z,1.80
2023-02-26T10:29:25.350Z,1.60
2023-02-26T10:32:07.569Z,1.50
2023-02-26T10:34:40.260Z,1.50
2023-02-26T10:37:18.361Z,1.60
2023-02-26T10:39:51.127Z,1.60
2023-02-26T10:42:24.048Z,1.70
2023-02-26T10:45:01.385Z,1.70
2023-02-26T10:47:39.160Z,1.70
2023-02-26T10:50:11.299Z,1.90
2023-02-26T10:52:39.373Z,2.30
2023-02-26T10:55:33.045Z,2.50
2023-02-26T10:58:05.005Z,2.80
2023-02-26T11:00:35.283Z,2.90
2023-02-26T11:03:05.666Z,2.50
2023-02-26T11:05:35.400Z,2.40
2023-02-26T11:08:06.556Z,2.40
2023-02-26T11:10:43.296Z,2.70
2023-02-26T11:13:13.023Z,2.90
2023-02-26T11:15:41.479Z,3.20
2023-02-26T11:18:17.689Z,3.80
2023-02-26T11:20:47.689Z,4.20
2023-02-26T11:23:19.835Z,4.30
2023-02-26T11:25:53.218Z,4.30
2023-02-26T11:28:23.668Z,4.20
2023-02-26T11:30:54.396Z,3.50
2023-02-26T11:33:30.715Z,3.10
2023-02-26T11:36:02.308Z,2.90
2023-02-26T11:38:31.480Z,3.00
2023-02-26T11:41:02.028Z,2.90
2023-02-26T11:43:37.588Z,2.70
2023-02-26T11:46:07.135Z,2.70
2023-02-26T11:48:42.555Z,2.70
2023-02-26T11:51:16.370Z,2.50
2023-02-26T11:53:50.071Z,2.40
2023-02-26T11:56:25.937Z,2.30
2023-02-26T11:58:56.057Z,2.30
2023-02-26T12:01:28.876Z,2.50
2023-02-26T12:04:01.696Z,2.40
2023-02-26T12:06:29.872Z,2.20
2023-02-26T12:08:59.045Z,2.10
2023-02-26T12:11:46.310Z,2.10
2023-02-26T12:14:30.932Z,2.00
2023-02-26T12:17:09.681Z,2.00
2023-02-26T12:19:43.761Z,2.10
2023-02-26T12:22:28.148Z,2.90
2023-02-26T12:25:23.151Z,3.00
2023-02-26T12:28:22.398Z,2.80
2023-02-26T12:31:16.607Z,2.70
2023-02-26T12:33:56.015Z,2.60
2023-02-26T12:36:48.479Z,2.50
2023-02-26T12:39:33.433Z,2.50
2023-02-26T12:42:12.549Z,2.40
2023-02-26T12:45:05.843Z,2.60
2023-02-26T12:47:44.883Z,2.80
2023-02-26T12:50:41.543Z,2.90
2023-02-26T12:53:51.675Z,3.20
2023-02-26T12:56:46.002Z,3.40
2023-02-26T12:59:29.487Z,3.40
2023-02-26T13:02:18.244Z,3.90
2023-02-26T13:05:14.058Z,3.90
2023-02-26T13:07:58.127Z,3.90
2023-02-26T13:10:38.015Z,3.80
2023-02-26T13:13:19.740Z,3.70
2023-02-26T13:16:00.874Z,3.50
2023-02-26T13:18:38.243Z,3.20
2023-02-26T13:21:09.148Z,3.00
2023-02-26T13:23:43.649Z,2.90
2023-02-26T13:26:16.069Z,3.00
2023-02-26T13:28:48.465Z,3.10
2023-02-26T13:31:20.234Z,3.00
2023-02-26T13:33:50.552Z,2.90
2023-02-26T13:36:21.903Z,2.90
2023-02-26T13:39:04.867Z,2.80
2023-02-26T13:41:43.498Z,3.20
2023-02-26T13:44:21.666Z,3.60
2023-02-26T13:47:06.936Z,4.20
2023-02-26T13:49:43.419Z,4.20
2023-02-26T13:52:25.243Z,4.00
2023-02-26T13:54:53.210Z,4.10
2023-02-26T13:57:49.490Z,4.20
2023-02-26T14:00:28.791Z,4.40
2023-02-26T14:02:58.430Z,4.30
2023-02-26T14:06:01.214Z,4.10
2023-02-26T14:08:45.183Z,3.80
2023-02-26T14:11:43.794Z,3.50
2023-02-26T14:14:24.768Z,3.30
2023-02-26T14:16:56.671Z,3.30
2023-02-26T14:19:28.778Z,3.20
2023-02-26T14:21:59.010Z,3.10
2023-02-26T14:24:39.338Z,3.00
2023-02-26T14:27:25.721Z,3.00
2023-02-26T14:30:06.834Z,3.00
2023-02-26T14:32:36.526Z,3.00
2023-02-26T14:35:07.866Z,3.10
2023-02-26T14:37:38.199Z,3.10
2023-02-26T14:40:12.416Z,3.20
2023-02-26T14:42:48.391Z,3.10
2023-02-26T14:45:29.552Z,3.00
2023-02-26T14:47:58.636Z,2.80
2023-02-26T14:50:30.839Z,2.70
2023-02-26T14:53:25.170Z,2.60
2023-02-26T14:56:02.727Z,2.50
2023-02-26T14:58:50.260Z,2.60
2023-02-26T15:01:38.005Z,2.90
2023-02-26T15:04:27.452Z,2.90
2023-02-26T15:07:12.305Z,3.00
2023-02-26T15:09:55.538Z,2.90
2023-02-26T15:12:37.289Z,2.80
2023-02-26T15:15:28.499Z,2.60
2023-02-26T15:18:21.336Z,2.40
2023-02-26T15:20:58.106Z,2.30
2023-02-26T15:23:40.240Z,2.20
2023-02-26T15:26:15.325Z,2.10
2023-02-26T15:28:43.568Z,2.10
2023-02-26T15:31:13.912Z,2.00
2023-02-26T15:33:45.422Z,2.00
2023-02-26T15:36:18.779Z,1.90
2023-02-26T15:38:49.806Z,1.80
2023-02-26T15:41:18.877Z,1.80
2023-02-26T15:43:51.422Z,1.70
2023-02-26T15:46:21.797Z,1.80
2023-02-26T15:48:51.241Z,1.80
2023-02-26T15:51:20.977Z,1.70
2023-02-26T15:53:50.751Z,1.70
2023-02-26T15:56:24.403Z,1.70
2023-02-26T15:58:56.918Z,1.70
2023-02-26T16:01:27.075Z,1.60
2023-02-26T16:04:00.326Z,1.60
2023-02-26T16:06:31.149Z,1.60
2023-02-26T16:09:00.278Z,1.50
2023-02-26T16:11:34.079Z,1.50
2023-02-26T16:14:02.536Z,1.40
2023-02-26T16:16:40.684Z,1.40
2023-02-26T16:19:14.527Z,1.40
2023-02-26T16:21:43.319Z,1.40
2023-02-26T16:24:16.388Z,1.30
2023-02-26T16:26:48.354Z,1.30
2023-02-26T16:29:19.766Z,1.30
2023-02-26T16:31:52.693Z,1.30
2023-02-26T16:34:36.224Z,1.20
2023-02-26T16:37:26.040Z,1.20
2023-02-26T16:39:58.141Z,1.10
2023-02-26T16:42:38.407Z,1.10
2023-02-26T16:45:29.944Z,1.00
2023-02-26T16:47:59.600Z,1.00
2023-02-26T16:50:32.019Z,1.00
2023-02-26T16:53:02.635Z,0.90
2023-02-26T16:55:32.588Z,0.80
2023-02-26T16:58:02.880Z,0.80
2023-02-26T17:00:31.840Z,0.80
2023-02-26T17:03:05.344Z,0.70
2023-02-26T17:05:37.269Z,0.70
2023-02-26T17:08:10.338Z,0.70
2023-02-26T17:10:45.769Z,0.60
2023-02-26T17:13:18.805Z,0.60
2023-02-26T17:15:49.006Z,0.60
2023-02-26T17:18:17.562Z,0.60
2023-02-26T17:20:47.601Z,0.60
2023-02-26T17:23:18.254Z,0.50
2023-02-26T17:25:50.257Z,0.50
2023-02-26T17:28:23.646Z,0.40
2023-02-26T17:30:51.948Z,0.40
2023-02-26T17:33:20.752Z,0.40
2023-02-26T17:35:50.429Z,0.40
2023-02-26T17:38:18.442Z,0.40
2023-02-26T17:40:48.649Z,0.30
2023-02-26T17:43:16.748Z,0.30
2023-02-26T17:45:44.768Z,0.30
2023-02-26T17:48:14.262Z,0.20
2023-02-26T17:50:47.193Z,0.20
2023-02-26T17:53:17.554Z,0.20
2023-02-26T17:55:46.407Z,0.20
2023-02-26T17:58:22.519Z,0.20
2023-02-26T18:00:53.146Z,0.20
2023-02-26T18:03:21.528Z,0.20
2023-02-26T18:05:50.726Z,0.10
2023-02-26T18:08:23.225Z,0.10
2023-02-26T18:10:52.033Z,0.10
2023-02-26T18:13:20.034Z,0.10
2023-02-26T18:15:48.362Z,0.10
2023-02-26T18:18:16.974Z,0.00
2023-02-26T18:20:46.103Z,0.00
2023-02-26T18:23:14.125Z,0.00
2023-02-26T18:25:45.693Z,0.00
2023-02-26T18:28:19.113Z,0.00
2023-02-26T18:30:47.155Z,0.00
2023-02-26T18:33:17.018Z,-0.10
2023-02-26T18:35:47.209Z,-0.10
2023-02-26T18:38:16.415Z,-0.10
2023-02-26T18:40:46.850Z,-0.10
2023-02-26T18:43:15.082Z,-0.10
2023-02-26T18:45:44.299Z,-0.10
2023-02-26T18:48:15.736Z,0.00
2023-02-26T18:50:43.880Z,0.00
2023-02-26T18:53:12.322Z,0.10
2023-02-26T18:55:40.480Z,0.10
2023-02-26T18:58:09.758Z,0.00
2023-02-26T19:00:37.661Z,0.00
2023-02-26T19:03:05.542Z,0.00
2023-02-26T19:05:33.405Z,0.00
2023-02-26T19:08:01.363Z,0.00
2023-02-26T19:10:31.439Z,-0.10
2023-02-26T19:12:59.588Z,0.00
2023-02-26T19:15:29.125Z,-0.10
2023-02-26T19:17:57.243Z,-0.10
2023-02-26T19:20:25.299Z,-0.10
2023-02-26T19:22:53.178Z,0.00
2023-02-26T19:25:24.005Z,-0.10
2023-02-26T19:27:53.438Z,0.00
2023-02-26T19:30:21.788Z,0.00
2023-02-26T19:32:51.779Z,0.00
2023-02-26T19:35:20.063Z,0.00
2023-02-26T19:37:48.107Z,0.00
2023-02-26T19:40:17.275Z,0.00
2023-02-26T19:42:45.542Z,0.00
2023-02-26T19:45:13.848Z,0.00
2023-02-26T19:47:42.286Z,-0.10
2023-02-26T19:50:14.018Z,-0.10
2023-02-26T19:52:42.484Z,-0.20
2023-02-26T19:55:11.568Z,-0.20
2023-02-26T19:57:39.437Z,-0.20
2023-02-26T20:00:08.482Z,-0.30
2023-02-26T20:02:36.480Z,-0.30
2023-02-26T20:05:05.738Z,-0.40
2023-02-26T20:07:36.217Z,-0.40
2023-02-26T20:10:04.482Z,-0.50
2023-02-26T20:12:32.344Z,-0.50
2023-02-26T20:15:00.222Z,-0.50
2023-02-26T20:17:28.158Z,-0.50
2023-02-26T20:19:55.982Z,-0.50
2023-02-26T20:22:24.576Z,-0.60
2023-02-26T20:24:53.833Z,-0.60
2023-02-26T20:27:22.054Z,-0.60
2023-02-26T20:29:50.919Z,-0.60
2023-02-26T20:32:19.185Z,-0.60
2023-02-26T20:34:47.220Z,-0.60
2023-02-26T20:37:15.182Z,-0.60
2023-02-26T20:39:43.065Z,-0.70
2023-02-26T20:42:12.319Z,-0.70
2023-02-26T20:44:40.226Z,-0.70
2023-02-26T20:47:08.115Z,-0.70
2023-02-26T20:49:36.050Z,-0.70
2023-02-26T20:52:04.315Z,-0.70
2023-02-26T20:54:32.266Z,-0.70
2023-02-26T20:57:00.154Z,-0.80
2023-02-26T20:59:29.345Z,-0.80
2023-02-26T21:01:57.511Z,-0.80
2023-02-26T21:04:25.585Z,-0.80
2023-02-26T21:06:53.449Z,-0.90
2023-02-26T21:09:21.332Z,-0.90
2023-02-26T21:11:52.415Z,-0.90
2023-02-26T21:14:20.275Z,-0.90
2023-02-26T21:16:49.484Z,-1.00
2023-02-26T21:19:17.350Z,-1.00
2023-02-26T21:21:45.245Z,-1.00
2023-02-26T21:24:13.117Z,-1.00
2023-02-26T21:26:41.060Z,-1.00
2023-02-26T21:29:09.153Z,-1.10
2023-02-26T21:31:37.723Z,-1.10
2023-02-26T21:34:30.272Z,-1.10
2023-02-26T21:36:55.023Z,-1.10
2023-02-26T21:39:23.255Z,-1.20
2023-02-26T21:41:51.172Z,-1.20
2023-02-26T21:44:19.112Z,-1.20
2023-02-26T21:46:46.978Z,-1.20
2023-02-26T21:49:16.269Z,-1.20
2023-02-26T21:51:44.172Z,-1.30
2023-02-26T21:54:12.448Z,-1.30
2023-02-26T21:56:40.640Z,-1.30
2023-02-26T21:59:08.681Z,-1.30
2023-02-26T22:01:36.778Z,-1.30
2023-02-26T22:04:05.219Z,-1.30
2023-02-26T22:06:34.806Z,-1.30
2023-02-26T22:09:02.802Z,-1.30
2023-02-26T22:11:30.846Z,-1.30
2023-02-26T22:13:58.824Z,-1.30
2023-02-26T22:16:27.512Z,-1.30
2023-02-26T22:18:55.618Z,-1.30
2023-02-26T22:21:24.784Z,-1.30
2023-02-26T22:23:54.147Z,-1.30
2023-02-26T22:26:22.309Z,-1.40
2023-02-26T22:28:50.269Z,-1.40
2023-02-26T22:31:18.237Z,-1.40
2023-02-26T22:33:46.135Z,-1.40
2023-02-26T22:36:14.014Z,-1.40
2023-02-26T22:38:41.884Z,-1.40
2023-02-26T22:41:11.087Z,-1.40
2023-02-26T22:43:39.064Z,-1.40
2023-02-26T22:46:07.593Z,-1.40
2023-02-26T22:48:35.639Z,-1.40
2023-02-26T22:51:03.479Z,-1.40
2023-02-26T22:53:31.904Z,-1.40
2023-02-26T22:55:59.796Z,-1.40
2023-02-26T22:58:29.387Z,-1.40
2023-02-26T23:01:01.595Z,-1.40
2023-02-26T23:03:30.186Z,-1.40
2023-02-26T23:05:58.516Z,-1.40
2023-02-26T23:08:27.049Z,-1.40
2023-02-26T23:10:56.057Z,-1.40
2023-02-26T23:13:24.812Z,-1.40
2023-02-26T23:15:54.328Z,-1.40
2023-02-26T23:18:22.251Z,-1.40
2023-02-26T23:20:50.871Z,-1.40
2023-02-26T23:23:18.735Z,-1.40
2023-02-26T23:25:47.168Z,-1.40
2023-02-26T23:28:15.040Z,-1.40
2023-02-26T23:30:42.992Z,-1.50
2023-02-26T23:33:12.332Z,-1.50
2023-02-26T23:35:40.489Z,-1.50
2023-02-26T23:38:09.056Z,-1.50
2023-02-26T23:40:36.960Z,-1.50
2023-02-26T23:43:04.851Z,-1.50
2023-02-26T23:45:32.824Z,-1.50
2023-02-26T23:48:00.782Z,-1.60
2023-02-26T23:50:29.981Z,-1.60
2023-02-26T23:52:57.877Z,-1.50
2023-02-26T23:55:25.796Z,-1.60
2023-02-26T23:57:53.639Z,-1.60
